createdAt,value
2019-03-24T00:00:35.149Z,91.50
2019-03-24T00:03:05.561Z,91.50
2019-03-24T00:05:35.888Z,91.50
2019-03-24T00:08:06.236Z,91.60
2019-03-24T00:10:36.572Z,91.60
2019-03-24T00:13:06.913Z,91.60
2019-03-24T00:15:37.244Z,91.70
2019-03-24T00:18:07.573Z,91.70
2019-03-24T00:20:37.909Z,91.70
2019-03-24T00:23:08.238Z,91.80
2019-03-24T00:25:38.570Z,91.80
2019-03-24T00:28:08.909Z,91.70
2019-03-24T00:30:39.246Z,91.60
2019-03-24T00:33:09.583Z,91.80
2019-03-24T00:35:39.907Z,91.90
2019-03-24T00:38:10.240Z,91.70
2019-03-24T00:40:40.569Z,91.80
2019-03-24T00:43:23.035Z,91.80
2019-03-24T00:45:53.367Z,91.80
2019-03-24T00:48:23.724Z,91.70
2019-03-24T00:50:54.128Z,91.70
2019-03-24T00:53:24.473Z,91.80
2019-03-24T00:55:54.802Z,92.00
2019-03-24T00:58:25.130Z,91.90
2019-03-24T01:00:55.462Z,91.80
2019-03-24T01:03:25.793Z,91.90
2019-03-24T01:05:56.121Z,91.90
2019-03-24T01:08:26.468Z,91.90
2019-03-24T01:10:56.809Z,91.90
2019-03-24T01:13:27.153Z,91.90
2019-03-24T01:15:57.490Z,91.90
2019-03-24T01:18:27.820Z,91.80
2019-03-24T01:20:58.156Z,91.80
2019-03-24T01:23:28.484Z,91.90
2019-03-24T01:25:58.831Z,91.80
2019-03-24T01:28:29.151Z,91.90
2019-03-24T01:30:59.489Z,91.90
2019-03-24T01:33:29.815Z,92.00
2019-03-24T01:36:00.151Z,91.90
2019-03-24T01:38:30.541Z,91.90
2019-03-24T01:41:00.829Z,92.00
2019-03-24T01:43:31.451Z,92.00
2019-03-24T01:46:01.797Z,92.00
2019-03-24T01:48:33.103Z,92.10
2019-03-24T01:51:03.445Z,92.00
2019-03-24T01:53:34.145Z,92.00
2019-03-24T01:56:04.567Z,92.30
2019-03-24T01:58:34.905Z,92.10
2019-03-24T02:01:05.242Z,92.00
2019-03-24T02:03:35.575Z,92.00
2019-03-24T02:06:18.578Z,92.00
2019-03-24T02:08:48.912Z,91.90
2019-03-24T02:11:19.248Z,92.00
2019-03-24T02:13:49.583Z,92.10
2019-03-24T02:16:19.925Z,92.20
2019-03-24T02:18:50.253Z,92.20
2019-03-24T02:21:20.597Z,92.20
2019-03-24T02:23:51.995Z,92.20
2019-03-24T02:26:22.336Z,92.20
2019-03-24T02:28:52.663Z,92.40
2019-03-24T02:31:23.000Z,92.30
2019-03-24T02:33:53.343Z,92.30
2019-03-24T02:36:23.676Z,92.30
2019-03-24T02:38:54.005Z,92.30
2019-03-24T02:41:24.339Z,92.20
2019-03-24T02:43:54.673Z,92.30
2019-03-24T02:46:25.385Z,92.20
2019-03-24T02:48:55.723Z,92.20
2019-03-24T02:51:26.060Z,92.60
2019-03-24T02:53:56.392Z,92.10
2019-03-24T02:56:26.729Z,92.10
2019-03-24T02:58:57.052Z,92.40
2019-03-24T03:01:27.383Z,92.20
2019-03-24T03:03:57.709Z,92.20
2019-03-24T03:06:28.055Z,92.20
2019-03-24T03:08:58.385Z,92.10
2019-03-24T03:11:28.725Z,92.10
2019-03-24T03:13:59.058Z,92.10
2019-03-24T03:16:41.280Z,92.00
2019-03-24T03:19:11.614Z,92.10
2019-03-24T03:21:41.954Z,92.20
2019-03-24T03:24:12.285Z,92.10
2019-03-24T03:26:42.619Z,92.20
2019-03-24T03:29:12.953Z,92.20
2019-03-24T03:31:43.295Z,92.10
2019-03-24T03:34:13.612Z,92.00
2019-03-24T03:36:45.020Z,92.10
2019-03-24T03:39:15.369Z,92.20
2019-03-24T03:41:45.710Z,92.10
2019-03-24T03:44:16.046Z,92.20
2019-03-24T03:46:52.534Z,92.10
2019-03-24T03:49:18.427Z,92.20
2019-03-24T03:51:48.764Z,92.10
2019-03-24T03:54:19.098Z,92.20
2019-03-24T03:56:49.438Z,92.20
2019-03-24T03:59:19.772Z,92.20
2019-03-24T04:01:50.112Z,92.20
2019-03-24T04:04:20.447Z,92.20
2019-03-24T04:06:50.782Z,92.20
2019-03-24T04:09:22.100Z,92.30
2019-03-24T04:11:52.424Z,92.40
2019-03-24T04:14:22.754Z,92.50
2019-03-24T04:17:06.254Z,92.50
2019-03-24T04:19:25.119Z,92.60
2019-03-24T04:21:55.467Z,92.50
2019-03-24T04:24:25.810Z,92.40
2019-03-24T04:27:08.351Z,92.40
2019-03-24T04:29:38.698Z,92.30
2019-03-24T04:32:09.020Z,92.20
2019-03-24T04:34:40.429Z,92.10
2019-03-24T04:37:10.916Z,92.20
2019-03-24T04:39:41.244Z,92.20
2019-03-24T04:42:11.572Z,92.50
2019-03-24T04:44:41.910Z,92.30
2019-03-24T04:47:16.535Z,92.40
2019-03-24T04:49:44.283Z,92.50
2019-03-24T04:52:14.623Z,92.50
2019-03-24T04:54:44.957Z,92.50
2019-03-24T04:57:15.291Z,92.50
2019-03-24T04:59:45.612Z,92.50
2019-03-24T05:02:15.947Z,92.40
2019-03-24T05:04:46.277Z,92.40
2019-03-24T05:07:16.613Z,92.40
2019-03-24T05:09:47.005Z,92.40
2019-03-24T05:12:17.337Z,92.40
2019-03-24T05:14:47.668Z,92.40
2019-03-24T05:17:26.778Z,92.40
2019-03-24T05:19:50.039Z,92.40
2019-03-24T05:22:20.372Z,92.40
2019-03-24T05:24:50.708Z,92.30
2019-03-24T05:27:21.037Z,92.30
2019-03-24T05:29:51.375Z,92.30
2019-03-24T05:32:21.704Z,92.20
2019-03-24T05:34:52.028Z,92.10
2019-03-24T05:37:22.346Z,92.10
2019-03-24T05:40:05.788Z,92.00
2019-03-24T05:42:37.083Z,92.00
2019-03-24T05:45:08.233Z,92.00
2019-03-24T05:47:38.555Z,92.10
2019-03-24T05:50:10.313Z,92.10
2019-03-24T05:52:40.642Z,92.10
2019-03-24T05:55:10.997Z,92.20
2019-03-24T05:57:41.327Z,92.20
2019-03-24T06:00:12.085Z,92.20
2019-03-24T06:02:42.409Z,92.20
2019-03-24T06:05:12.753Z,92.20
2019-03-24T06:07:44.705Z,92.20
2019-03-24T06:10:15.110Z,92.40
2019-03-24T06:12:45.436Z,92.50
2019-03-24T06:15:15.774Z,92.50
2019-03-24T06:17:47.991Z,92.50
2019-03-24T06:20:18.148Z,92.60
2019-03-24T06:22:48.485Z,92.60
2019-03-24T06:25:18.821Z,92.60
2019-03-24T06:27:49.174Z,93.00
2019-03-24T06:30:19.583Z,92.50
2019-03-24T06:32:49.919Z,92.50
2019-03-24T06:35:20.255Z,92.50
2019-03-24T06:37:50.598Z,92.50
2019-03-24T06:40:20.928Z,92.50
2019-03-24T06:42:51.261Z,92.60
2019-03-24T06:45:28.422Z,92.60
2019-03-24T06:47:57.952Z,92.40
2019-03-24T06:50:25.676Z,92.40
2019-03-24T06:52:56.013Z,92.50
2019-03-24T06:55:26.336Z,92.60
2019-03-24T06:57:57.533Z,92.30
2019-03-24T07:00:27.869Z,92.20
2019-03-24T07:02:58.201Z,92.10
2019-03-24T07:05:28.538Z,91.40
2019-03-24T07:07:58.876Z,90.80
2019-03-24T07:10:29.232Z,90.00
2019-03-24T07:12:59.565Z,88.90
2019-03-24T07:15:29.899Z,87.00
2019-03-24T07:18:08.092Z,86.00
2019-03-24T07:20:32.277Z,84.60
2019-03-24T07:23:02.626Z,81.70
2019-03-24T07:25:32.960Z,78.20
2019-03-24T07:28:03.302Z,78.30
2019-03-24T07:32:15.053Z,77.40
2019-03-24T07:34:45.399Z,77.10
2019-03-24T07:37:15.743Z,70.20
2019-03-24T07:39:46.091Z,73.00
2019-03-24T07:42:16.435Z,70.10
2019-03-24T07:44:47.854Z,69.80
2019-03-24T07:47:18.183Z,70.70
2019-03-24T07:49:48.530Z,68.80
2019-03-24T07:52:18.935Z,68.40
2019-03-24T07:54:49.281Z,68.20
2019-03-24T07:57:19.623Z,68.90
2019-03-24T07:59:49.966Z,71.00
2019-03-24T08:02:20.309Z,70.30
2019-03-24T08:04:50.676Z,71.00
2019-03-24T08:07:21.029Z,71.60
2019-03-24T08:09:51.403Z,71.00
2019-03-24T08:12:21.768Z,72.10
2019-03-24T08:14:52.107Z,71.50
2019-03-24T08:17:22.535Z,71.00
2019-03-24T08:19:52.799Z,70.00
2019-03-24T08:22:23.150Z,70.30
2019-03-24T08:24:53.498Z,70.30
2019-03-24T08:27:24.753Z,67.90
2019-03-24T08:29:55.108Z,68.90
2019-03-24T08:32:25.483Z,67.30
2019-03-24T08:34:55.828Z,67.60
2019-03-24T08:37:26.175Z,67.20
2019-03-24T08:39:56.518Z,66.30
2019-03-24T08:42:26.858Z,65.90
2019-03-24T08:44:57.203Z,65.30
2019-03-24T08:47:27.549Z,65.70
2019-03-24T08:49:57.885Z,64.20
2019-03-24T08:52:28.235Z,62.60
2019-03-24T08:54:59.833Z,62.80
2019-03-24T08:57:32.403Z,65.90
2019-03-24T09:00:03.886Z,65.00
2019-03-24T09:02:36.559Z,58.80
2019-03-24T09:05:07.932Z,61.00
2019-03-24T09:07:38.279Z,60.00
2019-03-24T09:10:09.262Z,60.20
2019-03-24T09:12:39.612Z,59.90
2019-03-24T09:15:10.268Z,59.30
2019-03-24T09:17:41.343Z,60.50
2019-03-24T09:20:12.558Z,61.10
2019-03-24T09:22:42.899Z,61.10
2019-03-24T09:25:13.800Z,61.50
2019-03-24T09:27:44.124Z,60.80
2019-03-24T09:30:35.891Z,62.00
2019-03-24T09:33:06.621Z,61.20
2019-03-24T09:35:36.968Z,61.20
2019-03-24T09:38:08.499Z,62.60
2019-03-24T09:40:38.937Z,62.20
2019-03-24T09:43:09.244Z,61.30
2019-03-24T09:45:39.582Z,59.10
2019-03-24T09:48:09.966Z,60.60
2019-03-24T09:50:40.324Z,60.90
2019-03-24T09:53:11.132Z,60.70
2019-03-24T09:55:41.485Z,61.60
2019-03-24T09:58:11.818Z,63.00
2019-03-24T10:00:42.168Z,61.80
2019-03-24T10:03:12.512Z,63.20
2019-03-24T10:05:42.869Z,62.30
2019-03-24T10:08:13.214Z,61.00
2019-03-24T10:10:43.562Z,57.90
2019-03-24T10:13:14.611Z,60.30
2019-03-24T10:15:44.963Z,58.70
2019-03-24T10:18:15.306Z,59.00
2019-03-24T10:20:45.645Z,61.00
2019-03-24T10:23:15.998Z,59.50
2019-03-24T10:25:46.349Z,59.10
2019-03-24T10:28:16.686Z,57.20
2019-03-24T10:30:47.028Z,59.50
2019-03-24T10:33:17.366Z,59.50
2019-03-24T10:35:47.999Z,58.50
2019-03-24T10:38:18.349Z,58.40
2019-03-24T10:40:48.694Z,59.50
2019-03-24T10:43:19.060Z,57.80
2019-03-24T10:45:49.409Z,55.80
2019-03-24T10:48:19.762Z,55.60
2019-03-24T10:50:50.106Z,54.70
2019-03-24T10:53:20.449Z,56.40
2019-03-24T10:55:50.834Z,55.30
2019-03-24T10:58:21.166Z,54.50
2019-03-24T11:00:51.531Z,52.50
2019-03-24T11:03:21.906Z,48.50
2019-03-24T11:05:52.220Z,48.50
2019-03-24T11:08:23.626Z,48.90
2019-03-24T11:10:53.984Z,48.70
2019-03-24T11:13:24.333Z,49.90
2019-03-24T11:15:54.684Z,51.80
2019-03-24T11:18:25.023Z,50.20
2019-03-24T11:20:55.367Z,51.70
2019-03-24T11:23:25.711Z,51.60
2019-03-24T11:25:56.057Z,52.30
2019-03-24T11:28:26.404Z,50.80
2019-03-24T11:30:56.765Z,49.80
2019-03-24T11:33:29.491Z,50.10
2019-03-24T11:35:59.170Z,49.40
2019-03-24T11:38:29.524Z,49.40
2019-03-24T11:40:59.930Z,50.90
2019-03-24T11:43:30.278Z,51.50
2019-03-24T11:46:00.622Z,51.60
2019-03-24T11:48:30.966Z,51.10
2019-03-24T11:51:01.331Z,52.10
2019-03-24T11:53:31.666Z,52.30
2019-03-24T11:56:02.397Z,52.40
2019-03-24T11:58:32.756Z,53.40
2019-03-24T12:01:03.092Z,52.50
2019-03-24T12:03:33.437Z,53.30
2019-03-24T12:06:13.989Z,51.70
2019-03-24T12:08:35.834Z,51.80
2019-03-24T12:11:06.178Z,50.80
2019-03-24T12:13:36.522Z,49.90
2019-03-24T12:16:06.862Z,50.40
2019-03-24T12:18:37.199Z,50.50
2019-03-24T12:21:07.541Z,49.40
2019-03-24T12:23:38.474Z,51.20
2019-03-24T12:26:08.837Z,52.00
2019-03-24T12:28:39.175Z,49.40
2019-03-24T12:31:09.586Z,48.70
2019-03-24T12:33:39.934Z,49.50
2019-03-24T12:36:10.287Z,49.80
2019-03-24T12:38:40.631Z,49.50
2019-03-24T12:41:10.982Z,50.80
2019-03-24T12:43:41.321Z,51.40
2019-03-24T12:46:11.656Z,52.10
2019-03-24T12:48:42.073Z,52.50
2019-03-24T12:51:12.419Z,53.60
2019-03-24T12:53:42.765Z,52.90
2019-03-24T12:56:13.113Z,52.30
2019-03-24T12:58:43.454Z,53.40
2019-03-24T13:01:13.793Z,53.50
2019-03-24T13:03:44.175Z,51.50
2019-03-24T13:06:14.471Z,48.70
2019-03-24T13:08:44.814Z,47.70
2019-03-24T13:11:15.173Z,46.70
2019-03-24T13:13:45.518Z,45.40
2019-03-24T13:16:15.862Z,47.50
2019-03-24T13:18:46.206Z,47.00
2019-03-24T13:21:16.540Z,48.00
2019-03-24T13:23:46.891Z,47.90
2019-03-24T13:26:17.261Z,48.90
2019-03-24T13:28:47.627Z,49.70
2019-03-24T13:31:17.998Z,49.60
2019-03-24T13:33:48.337Z,49.80
2019-03-24T13:36:18.688Z,49.70
2019-03-24T13:38:49.055Z,50.90
2019-03-24T13:41:20.467Z,51.50
2019-03-24T13:43:50.842Z,52.20
2019-03-24T13:46:21.181Z,51.40
2019-03-24T13:48:51.534Z,51.80
2019-03-24T13:51:21.899Z,52.40
2019-03-24T13:53:52.260Z,51.70
2019-03-24T13:56:22.595Z,52.60
2019-03-24T13:58:52.945Z,52.30
2019-03-24T14:01:24.253Z,51.80
2019-03-24T14:03:54.608Z,50.50
2019-03-24T14:06:26.586Z,50.10
2019-03-24T14:08:56.942Z,49.90
2019-03-24T14:11:27.288Z,49.80
2019-03-24T14:13:57.668Z,49.40
2019-03-24T14:16:28.043Z,50.50
2019-03-24T14:18:58.389Z,50.40
2019-03-24T14:21:28.727Z,50.60
2019-03-24T14:23:59.070Z,50.70
2019-03-24T14:26:30.353Z,50.90
2019-03-24T14:29:02.331Z,51.60
2019-03-24T14:31:32.632Z,51.00
2019-03-24T14:34:03.880Z,51.40
2019-03-24T14:36:34.214Z,51.40
2019-03-24T14:39:05.753Z,50.00
2019-03-24T14:41:36.094Z,50.60
2019-03-24T14:44:06.476Z,50.70
2019-03-24T14:46:36.824Z,50.70
2019-03-24T14:49:07.171Z,50.80
2019-03-24T14:51:37.518Z,49.60
2019-03-24T14:54:07.870Z,49.40
2019-03-24T14:56:38.222Z,49.90
2019-03-24T14:59:08.573Z,50.50
2019-03-24T15:01:38.906Z,50.50
2019-03-24T15:04:09.270Z,50.90
2019-03-24T15:06:39.604Z,51.00
2019-03-24T15:09:09.949Z,51.70
2019-03-24T15:11:40.294Z,52.30
2019-03-24T15:14:10.645Z,52.40
2019-03-24T15:16:40.983Z,51.90
2019-03-24T15:19:11.335Z,52.00
2019-03-24T15:21:41.672Z,52.20
2019-03-24T15:24:12.045Z,52.30
2019-03-24T15:26:42.385Z,52.30
2019-03-24T15:29:13.924Z,52.70
2019-03-24T15:31:44.258Z,53.00
2019-03-24T15:34:14.623Z,52.60
2019-03-24T15:36:44.964Z,52.70
2019-03-24T15:39:15.329Z,52.80
2019-03-24T15:41:45.660Z,53.10
2019-03-24T15:44:16.014Z,52.30
2019-03-24T15:46:46.418Z,52.20
2019-03-24T15:49:16.820Z,52.20
2019-03-24T15:51:47.118Z,52.50
2019-03-24T15:54:17.461Z,51.60
2019-03-24T15:56:47.808Z,52.20
2019-03-24T15:59:18.163Z,52.80
2019-03-24T16:01:48.514Z,53.80
2019-03-24T16:04:18.860Z,54.30
2019-03-24T16:06:49.292Z,54.30
2019-03-24T16:09:19.630Z,54.10
2019-03-24T16:11:49.973Z,54.30
2019-03-24T16:14:20.335Z,54.00
2019-03-24T16:16:50.679Z,54.40
2019-03-24T16:19:21.061Z,54.80
2019-03-24T16:21:51.395Z,55.30
2019-03-24T16:24:21.760Z,55.50
2019-03-24T16:26:52.104Z,55.10
2019-03-24T16:29:23.528Z,55.20
2019-03-24T16:31:53.870Z,55.20
2019-03-24T16:34:24.223Z,55.20
2019-03-24T16:36:54.552Z,55.40
2019-03-24T16:39:24.903Z,55.70
2019-03-24T16:41:55.435Z,55.60
2019-03-24T16:44:25.785Z,55.80
2019-03-24T16:46:57.192Z,56.30
2019-03-24T16:49:27.583Z,56.50
2019-03-24T16:51:57.907Z,56.30
2019-03-24T16:54:28.259Z,56.20
2019-03-24T16:56:58.600Z,57.30
2019-03-24T16:59:34.020Z,57.40
2019-03-24T17:02:04.355Z,57.50
2019-03-24T17:04:35.076Z,57.70
2019-03-24T17:07:05.415Z,58.30
2019-03-24T17:09:35.819Z,58.30
2019-03-24T17:12:06.154Z,58.50
2019-03-24T17:14:36.550Z,58.50
2019-03-24T17:17:07.863Z,58.80
2019-03-24T17:19:38.198Z,59.00
2019-03-24T17:22:08.554Z,59.40
2019-03-24T17:24:38.881Z,59.60
2019-03-24T17:27:09.219Z,60.50
2019-03-24T17:29:39.553Z,60.30
2019-03-24T17:32:10.962Z,60.50
2019-03-24T17:34:41.305Z,60.70
2019-03-24T17:37:11.633Z,60.80
2019-03-24T17:39:41.963Z,61.00
2019-03-24T17:42:12.300Z,60.90
2019-03-24T17:44:42.639Z,61.30
2019-03-24T17:47:12.990Z,61.40
2019-03-24T17:49:43.309Z,61.70
2019-03-24T17:52:13.643Z,61.80
2019-03-24T17:54:43.979Z,62.60
2019-03-24T17:57:14.650Z,62.60
2019-03-24T17:59:44.999Z,63.50
2019-03-24T18:02:15.336Z,63.30
2019-03-24T18:04:45.668Z,64.20
2019-03-24T18:07:16.005Z,65.20
2019-03-24T18:09:46.341Z,65.40
2019-03-24T18:12:16.670Z,65.90
2019-03-24T18:14:46.995Z,65.80
2019-03-24T18:17:17.336Z,66.70
2019-03-24T18:19:47.684Z,67.50
2019-03-24T18:22:18.011Z,66.70
2019-03-24T18:24:48.355Z,67.90
2019-03-24T18:27:18.687Z,68.20
2019-03-24T18:29:49.030Z,68.40
2019-03-24T18:32:19.377Z,69.60
2019-03-24T18:34:49.718Z,69.80
2019-03-24T18:37:20.060Z,70.20
2019-03-24T18:39:50.392Z,71.40
2019-03-24T18:42:20.852Z,71.70
2019-03-24T18:44:51.201Z,71.30
2019-03-24T18:47:21.555Z,72.30
2019-03-24T18:49:51.969Z,72.50
2019-03-24T18:52:23.015Z,72.90
2019-03-24T18:54:55.036Z,73.00
2019-03-24T18:57:25.374Z,73.50
2019-03-24T18:59:55.713Z,74.10
2019-03-24T19:02:26.056Z,74.00
2019-03-24T19:04:56.572Z,73.80
2019-03-24T19:07:26.813Z,74.20
2019-03-24T19:09:57.140Z,74.50
2019-03-24T19:12:28.803Z,74.50
2019-03-24T19:14:59.709Z,75.00
2019-03-24T19:17:30.060Z,75.20
2019-03-24T19:20:00.396Z,75.20
2019-03-24T19:22:33.737Z,75.80
2019-03-24T19:25:08.851Z,75.70
2019-03-24T19:27:39.188Z,76.20
2019-03-24T19:30:34.373Z,76.90
2019-03-24T19:33:05.360Z,77.20
2019-03-24T19:35:35.702Z,77.10
2019-03-24T19:38:07.113Z,77.10
2019-03-24T19:40:37.522Z,77.20
2019-03-24T19:43:07.904Z,77.20
2019-03-24T19:45:38.246Z,76.90
2019-03-24T19:48:08.574Z,77.60
2019-03-24T19:50:38.920Z,77.50
2019-03-24T19:53:09.269Z,77.30
2019-03-24T19:55:41.598Z,77.90
2019-03-24T19:58:11.933Z,78.10
2019-03-24T20:00:42.529Z,78.10
2019-03-24T20:03:12.874Z,78.30
2019-03-24T20:05:43.222Z,79.00
2019-03-24T20:08:13.557Z,78.00
2019-03-24T20:10:43.898Z,78.60
2019-03-24T20:13:14.256Z,78.80
2019-03-24T20:15:44.688Z,78.90
2019-03-24T20:18:15.022Z,79.10
2019-03-24T20:20:45.372Z,78.70
2019-03-24T20:23:15.715Z,78.60
2019-03-24T20:25:46.049Z,78.70
2019-03-24T20:28:16.412Z,78.60
2019-03-24T20:30:46.740Z,78.40
2019-03-24T20:33:17.085Z,78.60
2019-03-24T20:35:47.416Z,78.90
2019-03-24T20:38:17.763Z,78.60
2019-03-24T20:40:48.090Z,78.50
2019-03-24T20:43:18.431Z,78.70
2019-03-24T20:45:48.941Z,78.40
2019-03-24T20:48:19.292Z,78.80
2019-03-24T20:50:49.632Z,78.90
2019-03-24T20:53:19.996Z,78.60
2019-03-24T20:55:50.335Z,78.90
2019-03-24T20:58:20.661Z,78.80
2019-03-24T21:00:51.005Z,79.10
2019-03-24T21:03:21.497Z,78.70
2019-03-24T21:05:51.834Z,78.70
2019-03-24T21:08:22.199Z,78.80
2019-03-24T21:10:52.529Z,78.50
2019-03-24T21:13:22.865Z,79.50
2019-03-24T21:15:53.209Z,78.30
2019-03-24T21:18:23.552Z,79.00
2019-03-24T21:20:53.949Z,79.00
2019-03-24T21:23:29.466Z,79.50
2019-03-24T21:25:56.318Z,79.60
2019-03-24T21:28:26.652Z,79.30
2019-03-24T21:30:56.991Z,79.90
2019-03-24T21:33:27.333Z,79.40
2019-03-24T21:35:57.666Z,79.60
2019-03-24T21:38:28.025Z,79.80
2019-03-24T21:40:58.363Z,79.60
2019-03-24T21:43:28.698Z,79.50
2019-03-24T21:45:59.148Z,79.80
2019-03-24T21:48:29.489Z,79.80
2019-03-24T21:50:59.824Z,79.80
2019-03-24T21:53:40.294Z,80.20
2019-03-24T21:56:02.231Z,80.40
2019-03-24T21:58:32.562Z,79.90
2019-03-24T22:01:04.936Z,80.10
2019-03-24T22:03:35.583Z,80.00
2019-03-24T22:06:05.908Z,80.10
2019-03-24T22:08:36.243Z,80.50
2019-03-24T22:11:06.575Z,80.20
2019-03-24T22:13:41.592Z,80.20
2019-03-24T22:16:11.934Z,80.50
2019-03-24T22:18:42.282Z,81.10
2019-03-24T22:21:12.619Z,80.90
2019-03-24T22:23:51.803Z,81.70
2019-03-24T22:26:14.996Z,81.40
2019-03-24T22:28:45.337Z,81.70
2019-03-24T22:31:15.676Z,81.40
2019-03-24T22:33:46.023Z,81.50
2019-03-24T22:36:16.360Z,81.20
2019-03-24T22:38:46.691Z,81.30
2019-03-24T22:41:17.056Z,81.20
2019-03-24T22:43:47.389Z,81.40
2019-03-24T22:46:17.730Z,81.40
2019-03-24T22:48:48.067Z,81.60
2019-03-24T22:51:18.406Z,81.60
2019-03-24T22:53:48.749Z,81.80
2019-03-24T22:56:19.088Z,81.80
2019-03-24T22:58:49.422Z,81.80
2019-03-24T23:01:20.539Z,82.00
2019-03-24T23:03:50.883Z,81.90
2019-03-24T23:06:21.236Z,82.00
2019-03-24T23:08:51.577Z,82.20
2019-03-24T23:11:21.932Z,82.10
2019-03-24T23:13:52.266Z,81.80
2019-03-24T23:16:22.600Z,82.00
2019-03-24T23:18:52.945Z,82.00
2019-03-24T23:21:23.282Z,82.30
2019-03-24T23:23:53.622Z,82.00
2019-03-24T23:26:25.037Z,82.00
2019-03-24T23:28:55.379Z,82.00
2019-03-24T23:31:25.740Z,82.20
2019-03-24T23:33:56.065Z,82.00
2019-03-24T23:36:26.416Z,82.20
2019-03-24T23:38:57.389Z,82.40
2019-03-24T23:41:27.767Z,82.30
2019-03-24T23:43:58.095Z,82.50
2019-03-24T23:46:28.441Z,82.50
2019-03-24T23:48:58.781Z,82.50
2019-03-24T23:51:29.114Z,82.70
2019-03-24T23:53:59.448Z,82.70
2019-03-24T23:56:29.792Z,82.50
2019-03-24T23:59:00.128Z,83.80
